Time;durP1;ratioP1;P1;durP2;ratioP2;P2;SDS_P1;SDS_P2;PMS_P1;PMS_P2;Temp;Humidity;BMP_temperature;BMP_pressure;BME280_temperature;BME280_humidity;BME280_pressure;Samples;Min_cycle;Max_cycle;Signal;HPM_P1;HPM_P2
2022/03/02 00:00:00;;;;;;;;;;;;;;;;;;350136;28;1372;-77
2022/03/02 00:00:11;;;;;;;;;;;;;;;;;;350181;28;960;-78
2022/03/02 00:00:21;;;;;;;;;;;;;;;;;;350230;28;762;-77
2022/03/02 00:00:32;;;;;;;;;;;;;;;;;;350202;28;869;-78
2022/03/02 00:00:42;;;;;;;;;;;;;;;;;;350143;28;1019;-77
2022/03/02 00:00:52;;;;;;;;;;;;;;;;;;350217;28;945;-77
2022/03/02 00:01:04;;;;;;;;;;;;;;;;;;350303;28;838;-78
2022/03/02 00:01:15;;;;;;;;;;;;;;;;;;350041;28;1940;-77
2022/03/02 00:01:25;;;;;;;;;;;;;;;;;;350150;28;1124;-78
2022/03/02 00:01:36;;;;;;;;;;;;;;;;;;350215;28;983;-77
2022/03/02 00:01:46;;;;;;;;;;;;;;;;;;350228;28;913;-77
2022/03/02 00:01:56;;;;;;;;;;;;;;;;;;350162;28;979;-78
2022/03/02 00:02:07;;;;;;;;;;;;;;;;;;350197;28;1028;-78
2022/03/02 00:02:17;;;;;;;;;;;;;;;;;;350202;28;944;-77
2022/03/02 00:02:27;;;;;;;;;;;;;;;;;;350161;28;940;-77
2022/03/02 00:02:38;;;;;;;;;;;;;;;;;;350219;28;786;-76
2022/03/02 00:02:48;;;;;;;;;;;;;;;;;;350117;28;941;-77
2022/03/02 00:02:58;;;;;;;;;;;;;;;;;;350185;28;933;-77
2022/03/02 00:03:09;;;;;;;;;;;;;;;;;;349778;28;1848;-77
2022/03/02 00:03:19;;;;;;;;;;;;;;;;;;348756;28;1005;-77
2022/03/02 00:03:29;;;;;;;;;;;;;;;;;;348754;28;1027;-77
2022/03/02 00:03:39;;;;;;;;;;;;;;;;;;348805;28;1040;-77
2022/03/02 00:03:50;;;;;;;;;;;;;;;;;;348825;28;979;-77
2022/03/02 00:04:00;;;;;;;;;;;;;;;;;;348751;28;996;-77
2022/03/02 00:04:10;;;;;;;;;;;;;;;;;;348826;28;858;-77
2022/03/02 00:04:21;;;;;;;;;;;;;;;;;;348799;28;1741;-77
2022/03/02 00:04:31;;;;;;;;;;;;;;;;;;348796;28;905;-77
2022/03/02 00:04:42;;;;;;;;;;;;;;;;;;348815;28;953;-77
2022/03/02 00:04:52;;;;;;;;;;;;;;;;;;348723;28;952;-77
2022/03/02 00:05:03;;;;;;;;;;;;;;;;;;348791;28;973;-77
2022/03/02 00:05:13;;;;;;;;;;;;;;;;;;348766;28;1861;-76
2022/03/02 00:05:24;;;;;;;;;;;;;;;;;;350193;28;993;-77
2022/03/02 00:05:36;;;;;;;;;;;;;;;;;;350062;28;1160;-77
2022/03/02 00:05:46;;;;;;;;;;;;;;;;;;350180;28;988;-77
2022/03/02 00:05:56;;;;;;;;;;;;;;;;;;350088;28;1023;-77
2022/03/02 00:06:07;;;;;;;;;;;;;;;;;;350248;28;825;-77
2022/03/02 00:06:17;;;;;;;;;;;;;;;;;;349571;28;1881;-77
2022/03/02 00:06:28;;;;;;;;;;;;;;;;;;348837;28;865;-77
2022/03/02 00:06:38;;;;;;;;;;;;;;;;;;348842;28;869;-77
2022/03/02 00:06:48;;;;;;;;;;;;;;;;;;348798;28;960;-77
2022/03/02 00:06:59;;;;;;;;;;;;;;;;;;348804;28;925;-77
2022/03/02 00:07:09;;;;;;;;;;;;;;;;;;348831;28;963;-77
2022/03/02 00:07:19;;;;;;;;;;;;;;;;;;348754;28;1513;-77
2022/03/02 00:07:29;;;;;;;;;;;;;;;;;;350008;28;1434;-77
2022/03/02 00:07:40;;;;;;;;;;;;;;;;;;350152;28;1599;-77
2022/03/02 00:07:51;;;;;;;;;;;;;;;;;;350166;28;865;-77
2022/03/02 00:08:02;;;;;;;;;;;;;;;;;;350194;28;868;-77
2022/03/02 00:08:12;;;;;;;;;;;;;;;;;;350179;28;929;-77
2022/03/02 00:08:22;;;;;;;;;;;;;;;;;;350160;28;999;-77
2022/03/02 00:08:33;;;;;;;;;;;;;;;;;;350218;28;849;-77
2022/03/02 00:08:43;;;;;;;;;;;;;;;;;;350208;28;925;-77
2022/03/02 00:08:53;;;;;;;;;;;;;;;;;;349807;28;1746;-77
2022/03/02 00:09:03;;;;;;;;;;;;;;;;;;348921;28;1786;-77
2022/03/02 00:09:13;;;;;;;;;;;;;;;;;;348836;28;893;-77
2022/03/02 00:09:24;;;;;;;;;;;;;;;;;;348698;28;1118;-77
2022/03/02 00:09:34;;;;;;;;;;;;;;;;;;348777;28;1036;-77
2022/03/02 00:09:44;;;;;;;;;;;;;;;;;;348832;28;814;-77
2022/03/02 00:09:55;;;;;;;;;;;;;;;;;;348836;28;880;-77
2022/03/02 00:10:06;;;;;;;;;;;;;;;;;;348819;28;878;-77
2022/03/02 00:10:16;;;;;;;;;;;;;;;;;;348898;28;924;-77
2022/03/02 00:10:26;;;;;;;;;;;;;;;;;;348795;28;897;-77
2022/03/02 00:10:36;;;;;;;;;;;;;;;;;;348779;28;968;-78
2022/03/02 00:10:47;;;;;;;;;;;;;;;;;;348822;28;1042;-77
2022/03/02 00:10:57;;;;;;;;;;;;;;;;;;348841;28;968;-77
2022/03/02 00:11:07;;;;;;;;;;;;;;;;;;348745;28;995;-77
2022/03/02 00:11:18;;;;;;;;;;;;;;;;;;348839;28;980;-77
2022/03/02 00:11:28;;;;;;;;;;;;;;;;;;348758;28;1893;-77
2022/03/02 00:11:38;;;;;;;;;;;;;;;;;;348784;28;921;-77
2022/03/02 00:11:48;;;;;;;;;;;;;;;;;;348777;28;948;-77
2022/03/02 00:11:59;;;;;;;;;;;;;;;;;;348807;28;913;-77
2022/03/02 00:12:09;;;;;;;;;;;;;;;;;;348831;28;912;-76
2022/03/02 00:12:19;;;;;;;;;;;;;;;;;;348653;28;1837;-77
2022/03/02 00:12:30;;;;;;;;;;;;;;;;;;348758;28;941;-77
2022/03/02 00:12:40;;;;;;;;;;;;;;;;;;348846;28;948;-77
2022/03/02 00:12:50;;;;;;;;;;;;;;;;;;348863;28;806;-77
2022/03/02 00:13:00;;;;;;;;;;;;;;;;;;348833;28;917;-77
2022/03/02 00:13:11;;;;;;;;;;;;;;;;;;348739;28;912;-77
2022/03/02 00:13:22;;;;;;;;;;;;;;;;;;348793;28;976;-77
2022/03/02 00:13:32;;;;;;;;;;;;;;;;;;348858;28;822;-77
2022/03/02 00:13:42;;;;;;;;;;;;;;;;;;348870;28;818;-77
2022/03/02 00:13:53;;;;;;;;;;;;;;;;;;348755;28;953;-77
2022/03/02 00:14:05;;;;;;;;;;;;;;;;;;348837;28;783;-77
2022/03/02 00:14:15;;;;;;;;;;;;;;;;;;348829;28;888;-77
2022/03/02 00:14:25;;;;;;;;;;;;;;;;;;348789;28;909;-77
2022/03/02 00:14:36;;;;;;;;;;;;;;;;;;348776;28;971;-77
2022/03/02 00:14:46;;;;;;;;;;;;;;;;;;348829;28;984;-78
2022/03/02 00:14:57;;;;;;;;;;;;;;;;;;348755;28;1001;-77
2022/03/02 00:15:08;;;;;;;;;;;;;;;;;;348837;28;925;-77
2022/03/02 00:15:18;;;;;;;;;;;;;;;;;;348756;28;881;-77
2022/03/02 00:15:29;;;;;;;;;;;;;;;;;;348819;28;881;-77
2022/03/02 00:15:39;;;;;;;;;;;;;;;;;;348876;28;762;-77
2022/03/02 00:15:49;;;;;;;;;;;;;;;;;;348832;28;798;-77
2022/03/02 00:15:59;;;;;;;;;;;;;;;;;;348731;28;1078;-78
2022/03/02 00:16:11;;;;;;;;;;;;;;;;;;348695;28;1853;-77
2022/03/02 00:16:22;;;;;;;;;;;;;;;;;;348846;28;921;-77
2022/03/02 00:16:33;;;;;;;;;;;;;;;;;;348837;28;873;-77
2022/03/02 00:16:43;;;;;;;;;;;;;;;;;;348864;28;858;-77
2022/03/02 00:16:53;;;;;;;;;;;;;;;;;;348781;28;913;-77
2022/03/02 00:17:04;;;;;;;;;;;;;;;;;;348818;28;913;-77
2022/03/02 00:17:14;;;;;;;;;;;;;;;;;;348823;28;1037;-77
2022/03/02 00:17:24;;;;;;;;;;;;;;;;;;348742;28;1043;-77
2022/03/02 00:17:34;;;;;;;;;;;;;;;;;;348760;28;885;-77
2022/03/02 00:17:44;;;;;;;;;;;;;;;;;;348770;28;980;-77
2022/03/02 00:17:56;;;;;;;;;;;;;;;;;;348830;28;806;-77
2022/03/02 00:18:06;;;;;;;;;;;;;;;;;;348729;28;1961;-77
2022/03/02 00:18:16;;;;;;;;;;;;;;;;;;348728;28;1039;-77
2022/03/02 00:18:27;;;;;;;;;;;;;;;;;;348784;28;849;-77
2022/03/02 00:18:37;;;;;;;;;;;;;;;;;;348812;28;798;-77
2022/03/02 00:18:48;;;;;;;;;;;;;;;;;;348828;28;901;-77
2022/03/02 00:18:59;;;;;;;;;;;;;;;;;;348692;28;1908;-77
2022/03/02 00:19:09;;;;;;;;;;;;;;;;;;348820;28;972;-76
2022/03/02 00:19:20;;;;;;;;;;;;;;;;;;348816;28;877;-77
2022/03/02 00:19:30;;;;;;;;;;;;;;;;;;348665;28;980;-77
2022/03/02 00:19:40;;;;;;;;;;;;;;;;;;348855;28;956;-77
2022/03/02 00:19:51;;;;;;;;;;;;;;;;;;348627;28;1675;-77
2022/03/02 00:20:03;;;;;;;;;;;;;;;;;;348850;28;782;-77
2022/03/02 00:20:13;;;;;;;;;;;;;;;;;;348785;28;980;-77
2022/03/02 00:20:24;;;;;;;;;;;;;;;;;;348782;28;876;-77
2022/03/02 00:20:34;;;;;;;;;;;;;;;;;;348834;28;759;-77
2022/03/02 00:20:45;;;;;;;;;;;;;;;;;;348883;28;790;-77
2022/03/02 00:20:55;;;;;;;;;;;;;;;;;;348801;28;913;-77
2022/03/02 00:21:06;;;;;;;;;;;;;;;;;;348785;28;988;-77
2022/03/02 00:21:16;;;;;;;;;;;;;;;;;;348773;28;881;-77
2022/03/02 00:21:26;;;;;;;;;;;;;;;;;;348622;28;1822;-77
2022/03/02 00:21:36;;;;;;;;;;;;;;;;;;349453;28;1869;-77
2022/03/02 00:21:47;;;;;;;;;;;;;;;;;;350142;28;987;-77
2022/03/02 00:21:57;;;;;;;;;;;;;;;;;;349931;28;1457;-77
2022/03/02 00:22:07;;;;;;;;;;;;;;;;;;350018;28;1567;-77
2022/03/02 00:22:18;;;;;;;;;;;;;;;;;;350114;28;792;-77
2022/03/02 00:22:28;;;;;;;;;;;;;;;;;;350237;28;825;-77
2022/03/02 00:22:39;;;;;;;;;;;;;;;;;;350119;28;956;-77
2022/03/02 00:22:52;;;;;;;;;;;;;;;;;;350140;28;921;-77
2022/03/02 00:23:02;;;;;;;;;;;;;;;;;;350227;28;937;-77
2022/03/02 00:23:13;;;;;;;;;;;;;;;;;;350165;28;940;-77
2022/03/02 00:23:23;;;;;;;;;;;;;;;;;;350139;28;975;-77
2022/03/02 00:23:33;;;;;;;;;;;;;;;;;;350119;28;940;-77
2022/03/02 00:23:43;;;;;;;;;;;;;;;;;;350117;28;933;-77
2022/03/02 00:23:53;;;;;;;;;;;;;;;;;;350168;28;809;-77
2022/03/02 00:24:04;;;;;;;;;;;;;;;;;;350176;28;976;-77
2022/03/02 00:24:14;;;;;;;;;;;;;;;;;;350162;28;945;-77
2022/03/02 00:24:25;;;;;;;;;;;;;;;;;;350163;28;834;-77
2022/03/02 00:24:35;;;;;;;;;;;;;;;;;;350093;28;1043;-77
2022/03/02 00:24:50;;;;;;;;;;;;;;;;;;350171;28;972;-77
2022/03/02 00:25:01;;;;;;;;;;;;;;;;;;350136;28;1035;-77
2022/03/02 00:25:11;;;;;;;;;;;;;;;;;;350191;28;1003;-77
2022/03/02 00:25:21;;;;;;;;;;;;;;;;;;350080;28;1003;-76
2022/03/02 00:25:31;;;;;;;;;;;;;;;;;;350142;28;920;-77
2022/03/02 00:25:42;;;;;;;;;;;;;;;;;;349978;28;1086;-77
2022/03/02 00:25:52;;;;;;;;;;;;;;;;;;350171;28;1030;-77
2022/03/02 00:26:02;;;;;;;;;;;;;;;;;;350151;28;936;-77
2022/03/02 00:26:13;;;;;;;;;;;;;;;;;;350197;28;865;-77
2022/03/02 00:26:23;;;;;;;;;;;;;;;;;;349531;28;1865;-77
2022/03/02 00:26:33;;;;;;;;;;;;;;;;;;348744;28;980;-77
2022/03/02 00:26:43;;;;;;;;;;;;;;;;;;348809;28;917;-77
2022/03/02 00:26:54;;;;;;;;;;;;;;;;;;348802;28;996;-78
2022/03/02 00:27:04;;;;;;;;;;;;;;;;;;348722;28;1027;-77
2022/03/02 00:27:14;;;;;;;;;;;;;;;;;;348819;28;928;-77
2022/03/02 00:27:25;;;;;;;;;;;;;;;;;;348839;28;891;-77
2022/03/02 00:27:35;;;;;;;;;;;;;;;;;;348698;28;1069;-78
2022/03/02 00:27:46;;;;;;;;;;;;;;;;;;348709;28;1151;-77
2022/03/02 00:27:56;;;;;;;;;;;;;;;;;;348749;28;1080;-77
2022/03/02 00:28:06;;;;;;;;;;;;;;;;;;348760;28;909;-77
2022/03/02 00:28:17;;;;;;;;;;;;;;;;;;348822;28;842;-77
2022/03/02 00:28:27;;;;;;;;;;;;;;;;;;348781;28;1047;-77
2022/03/02 00:28:37;;;;;;;;;;;;;;;;;;348788;28;925;-77
2022/03/02 00:28:47;;;;;;;;;;;;;;;;;;348713;28;889;-77
2022/03/02 00:28:58;;;;;;;;;;;;;;;;;;348843;28;893;-77
2022/03/02 00:29:08;;;;;;;;;;;;;;;;;;348822;28;979;-78
2022/03/02 00:29:18;;;;;;;;;;;;;;;;;;348784;28;838;-77
2022/03/02 00:29:28;;;;;;;;;;;;;;;;;;348836;28;941;-77
2022/03/02 00:29:39;;;;;;;;;;;;;;;;;;348799;28;972;-77
2022/03/02 00:29:49;;;;;;;;;;;;;;;;;;348800;28;991;-77
2022/03/02 00:30:00;;;;;;;;;;;;;;;;;;348782;28;850;-77
2022/03/02 00:30:10;;;;;;;;;;;;;;;;;;348816;28;838;-77
2022/03/02 00:30:22;;;;;;;;;;;;;;;;;;348770;28;1037;-78
2022/03/02 00:30:32;;;;;;;;;;;;;;;;;;348745;28;940;-77
2022/03/02 00:30:43;;;;;;;;;;;;;;;;;;348832;28;901;-77
2022/03/02 00:30:53;;;;;;;;;;;;;;;;;;348800;28;929;-77
2022/03/02 00:31:03;;;;;;;;;;;;;;;;;;348758;28;929;-77
2022/03/02 00:31:13;;;;;;;;;;;;;;;;;;348761;28;1889;-77
2022/03/02 00:31:24;;;;;;;;;;;;;;;;;;348771;28;1078;-77
2022/03/02 00:31:35;;;;;;;;;;;;;;;;;;348780;28;1004;-77
2022/03/02 00:31:45;;;;;;;;;;;;;;;;;;348766;28;921;-77
2022/03/02 00:31:55;;;;;;;;;;;;;;;;;;348640;28;989;-77
2022/03/02 00:32:05;;;;;;;;;;;;;;;;;;348786;28;933;-77
2022/03/02 00:32:16;;;;;;;;;;;;;;;;;;348727;28;1039;-77
2022/03/02 00:32:26;;;;;;;;;;;;;;;;;;348820;28;814;-77
2022/03/02 00:32:37;;;;;;;;;;;;;;;;;;348801;28;834;-77
2022/03/02 00:32:47;;;;;;;;;;;;;;;;;;348705;28;1020;-77
2022/03/02 00:32:59;;;;;;;;;;;;;;;;;;348788;28;929;-77
2022/03/02 00:33:09;;;;;;;;;;;;;;;;;;348848;28;861;-77
2022/03/02 00:33:19;;;;;;;;;;;;;;;;;;348779;28;1038;-77
2022/03/02 00:33:30;;;;;;;;;;;;;;;;;;348763;28;941;-77
2022/03/02 00:33:40;;;;;;;;;;;;;;;;;;348677;28;1841;-76
2022/03/02 00:33:50;;;;;;;;;;;;;;;;;;348838;28;960;-77
2022/03/02 00:34:01;;;;;;;;;;;;;;;;;;348768;28;1015;-77
2022/03/02 00:34:11;;;;;;;;;;;;;;;;;;348805;28;878;-77
2022/03/02 00:34:21;;;;;;;;;;;;;;;;;;348713;28;964;-77
2022/03/02 00:34:31;;;;;;;;;;;;;;;;;;348761;28;1750;-77
2022/03/02 00:34:42;;;;;;;;;;;;;;;;;;348822;28;912;-77
2022/03/02 00:34:52;;;;;;;;;;;;;;;;;;348797;28;845;-77
2022/03/02 00:35:02;;;;;;;;;;;;;;;;;;348822;28;808;-77
2022/03/02 00:35:13;;;;;;;;;;;;;;;;;;348729;28;1004;-77
2022/03/02 00:35:23;;;;;;;;;;;;;;;;;;348810;28;869;-77
2022/03/02 00:35:34;;;;;;;;;;;;;;;;;;348802;28;1118;-77
2022/03/02 00:35:44;;;;;;;;;;;;;;;;;;348800;28;893;-77
2022/03/02 00:35:55;;;;;;;;;;;;;;;;;;348788;28;822;-77
2022/03/02 00:36:05;;;;;;;;;;;;;;;;;;348782;28;852;-77
2022/03/02 00:36:15;;;;;;;;;;;;;;;;;;348746;28;921;-77
2022/03/02 00:36:26;;;;;;;;;;;;;;;;;;348898;28;1869;-77
2022/03/02 00:36:36;;;;;;;;;;;;;;;;;;349274;28;1829;-77
2022/03/02 00:36:46;;;;;;;;;;;;;;;;;;350132;28;977;-77
2022/03/02 00:36:57;;;;;;;;;;;;;;;;;;350102;28;972;-77
2022/03/02 00:37:07;;;;;;;;;;;;;;;;;;350199;28;833;-77
2022/03/02 00:37:17;;;;;;;;;;;;;;;;;;349802;28;1825;-76
2022/03/02 00:37:27;;;;;;;;;;;;;;;;;;348907;28;1734;-77
2022/03/02 00:37:38;;;;;;;;;;;;;;;;;;348712;28;988;-77
2022/03/02 00:37:48;;;;;;;;;;;;;;;;;;348840;28;833;-77
2022/03/02 00:37:58;;;;;;;;;;;;;;;;;;348705;28;1890;-77
2022/03/02 00:38:10;;;;;;;;;;;;;;;;;;348738;28;920;-77
2022/03/02 00:38:21;;;;;;;;;;;;;;;;;;348743;28;949;-77
2022/03/02 00:38:31;;;;;;;;;;;;;;;;;;348775;28;976;-77
2022/03/02 00:38:42;;;;;;;;;;;;;;;;;;349913;28;1316;-77
2022/03/02 00:38:53;;;;;;;;;;;;;;;;;;351530;28;1119;-77
2022/03/02 00:39:04;;;;;;;;;;;;;;;;;;351519;28;1016;-77
2022/03/02 00:39:14;;;;;;;;;;;;;;;;;;351601;28;888;-77
2022/03/02 00:39:24;;;;;;;;;;;;;;;;;;349960;28;1857;-77
2022/03/02 00:39:35;;;;;;;;;;;;;;;;;;348844;28;845;-77
2022/03/02 00:39:45;;;;;;;;;;;;;;;;;;348732;28;1119;-77
2022/03/02 00:39:56;;;;;;;;;;;;;;;;;;348770;28;868;-77
2022/03/02 00:40:06;;;;;;;;;;;;;;;;;;348800;28;909;-77
2022/03/02 00:40:16;;;;;;;;;;;;;;;;;;348735;28;957;-77
2022/03/02 00:40:27;;;;;;;;;;;;;;;;;;348729;28;1657;-77
2022/03/02 00:40:38;;;;;;;;;;;;;;;;;;348860;28;917;-77
2022/03/02 00:40:48;;;;;;;;;;;;;;;;;;348785;28;953;-77
2022/03/02 00:40:58;;;;;;;;;;;;;;;;;;348744;28;1096;-76
2022/03/02 00:41:08;;;;;;;;;;;;;;;;;;348604;28;1781;-77
2022/03/02 00:41:19;;;;;;;;;;;;;;;;;;348787;28;932;-77
2022/03/02 00:41:29;;;;;;;;;;;;;;;;;;348769;28;1818;-77
2022/03/02 00:41:39;;;;;;;;;;;;;;;;;;348811;28;811;-77
2022/03/02 00:41:51;;;;;;;;;;;;;;;;;;348749;28;957;-77
2022/03/02 00:42:02;;;;;;;;;;;;;;;;;;348745;28;924;-77
2022/03/02 00:42:12;;;;;;;;;;;;;;;;;;348763;28;988;-77
2022/03/02 00:42:22;;;;;;;;;;;;;;;;;;348723;28;937;-77
2022/03/02 00:42:33;;;;;;;;;;;;;;;;;;348722;28;901;-77
2022/03/02 00:42:44;;;;;;;;;;;;;;;;;;348795;28;881;-77
2022/03/02 00:42:54;;;;;;;;;;;;;;;;;;348750;28;1007;-77
2022/03/02 00:43:05;;;;;;;;;;;;;;;;;;348698;28;1875;-76
2022/03/02 00:43:16;;;;;;;;;;;;;;;;;;348707;28;957;-77
2022/03/02 00:43:27;;;;;;;;;;;;;;;;;;348765;28;987;-77
2022/03/02 00:43:37;;;;;;;;;;;;;;;;;;348801;28;917;-77
2022/03/02 00:43:48;;;;;;;;;;;;;;;;;;348803;28;846;-77
2022/03/02 00:43:58;;;;;;;;;;;;;;;;;;348674;28;949;-77
2022/03/02 00:44:08;;;;;;;;;;;;;;;;;;348722;28;1805;-77
2022/03/02 00:44:18;;;;;;;;;;;;;;;;;;348764;28;937;-77
2022/03/02 00:44:29;;;;;;;;;;;;;;;;;;348720;28;937;-77
2022/03/02 00:44:39;;;;;;;;;;;;;;;;;;348755;28;929;-77
2022/03/02 00:44:49;;;;;;;;;;;;;;;;;;348764;28;1112;-77
2022/03/02 00:44:59;;;;;;;;;;;;;;;;;;348835;28;884;-77
2022/03/02 00:45:10;;;;;;;;;;;;;;;;;;348795;28;889;-77
2022/03/02 00:45:20;;;;;;;;;;;;;;;;;;348704;28;929;-77
2022/03/02 00:45:31;;;;;;;;;;;;;;;;;;348748;28;860;-77
2022/03/02 00:45:42;;;;;;;;;;;;;;;;;;348727;28;865;-77
2022/03/02 00:45:52;;;;;;;;;;;;;;;;;;348798;28;924;-77
2022/03/02 00:46:02;;;;;;;;;;;;;;;;;;348696;28;925;-77
2022/03/02 00:46:12;;;;;;;;;;;;;;;;;;348857;28;1929;-76
2022/03/02 00:46:29;;;;;;;;;;;;;;;;;;350127;28;1064;-77
2022/03/02 00:46:41;;;;;;;;;;;;;;;;;;350000;28;1695;-76
2022/03/02 00:46:51;;;;;;;;;;;;;;;;;;350113;28;944;-77
2022/03/02 00:47:02;;;;;;;;;;;;;;;;;;350166;28;826;-77
2022/03/02 00:47:12;;;;;;;;;;;;;;;;;;350172;28;980;-77
2022/03/02 00:47:23;;;;;;;;;;;;;;;;;;350090;28;987;-77
2022/03/02 00:47:33;;;;;;;;;;;;;;;;;;350148;28;925;-77
2022/03/02 00:47:43;;;;;;;;;;;;;;;;;;350126;28;964;-77
2022/03/02 00:47:54;;;;;;;;;;;;;;;;;;350114;28;1012;-77
2022/03/02 00:48:05;;;;;;;;;;;;;;;;;;350139;28;913;-77
2022/03/02 00:48:15;;;;;;;;;;;;;;;;;;349592;28;1750;-77
2022/03/02 00:48:26;;;;;;;;;;;;;;;;;;348897;28;1853;-77
2022/03/02 00:48:36;;;;;;;;;;;;;;;;;;350133;28;968;-77
2022/03/02 00:48:46;;;;;;;;;;;;;;;;;;350131;28;892;-77
2022/03/02 00:48:57;;;;;;;;;;;;;;;;;;350099;28;917;-77
2022/03/02 00:49:08;;;;;;;;;;;;;;;;;;350132;28;794;-77
2022/03/02 00:49:18;;;;;;;;;;;;;;;;;;350157;28;933;-77
2022/03/02 00:49:31;;;;;;;;;;;;;;;;;;348973;28;1845;-77
2022/03/02 00:49:41;;;;;;;;;;;;;;;;;;348779;28;949;-77
2022/03/02 00:49:52;;;;;;;;;;;;;;;;;;348802;28;945;-77
2022/03/02 00:50:03;;;;;;;;;;;;;;;;;;348662;28;1142;-77
2022/03/02 00:50:14;;;;;;;;;;;;;;;;;;348676;28;976;-77
2022/03/02 00:50:24;;;;;;;;;;;;;;;;;;348733;28;1051;-76
2022/03/02 00:50:35;;;;;;;;;;;;;;;;;;348724;28;968;-77
2022/03/02 00:50:46;;;;;;;;;;;;;;;;;;348767;28;798;-77
2022/03/02 00:50:56;;;;;;;;;;;;;;;;;;348764;28;1028;-77
2022/03/02 00:51:07;;;;;;;;;;;;;;;;;;348698;28;898;-77
2022/03/02 00:51:17;;;;;;;;;;;;;;;;;;348773;28;944;-77
2022/03/02 00:51:28;;;;;;;;;;;;;;;;;;348719;28;1861;-76
2022/03/02 00:51:38;;;;;;;;;;;;;;;;;;348790;28;941;-76
2022/03/02 00:51:49;;;;;;;;;;;;;;;;;;348724;28;937;-77
2022/03/02 00:51:59;;;;;;;;;;;;;;;;;;348703;28;920;-77
2022/03/02 00:52:11;;;;;;;;;;;;;;;;;;349425;28;1457;-77
2022/03/02 00:52:21;;;;;;;;;;;;;;;;;;350169;28;853;-77
2022/03/02 00:52:32;;;;;;;;;;;;;;;;;;350173;28;980;-77
2022/03/02 00:52:42;;;;;;;;;;;;;;;;;;350036;28;924;-77
2022/03/02 00:52:52;;;;;;;;;;;;;;;;;;350186;28;798;-77
2022/03/02 00:53:05;;;;;;;;;;;;;;;;;;350207;28;980;-77
2022/03/02 00:53:16;;;;;;;;;;;;;;;;;;350153;28;798;-77
2022/03/02 00:53:26;;;;;;;;;;;;;;;;;;350115;28;913;-77
2022/03/02 00:53:36;;;;;;;;;;;;;;;;;;350036;28;1174;-77
2022/03/02 00:53:47;;;;;;;;;;;;;;;;;;350184;28;861;-77
2022/03/02 00:53:58;;;;;;;;;;;;;;;;;;350174;28;960;-77
2022/03/02 00:54:09;;;;;;;;;;;;;;;;;;350013;28;1824;-77
2022/03/02 00:54:19;;;;;;;;;;;;;;;;;;349629;28;1749;-77
2022/03/02 00:54:30;;;;;;;;;;;;;;;;;;350097;28;1120;-77
2022/03/02 00:54:41;;;;;;;;;;;;;;;;;;350155;28;1015;-77
2022/03/02 00:54:51;;;;;;;;;;;;;;;;;;350060;28;894;-77
2022/03/02 00:55:03;;;;;;;;;;;;;;;;;;350104;28;1006;-77
2022/03/02 00:55:14;;;;;;;;;;;;;;;;;;350102;28;969;-77
2022/03/02 00:55:24;;;;;;;;;;;;;;;;;;350151;28;905;-77
2022/03/02 00:55:35;;;;;;;;;;;;;;;;;;350088;28;975;-77
2022/03/02 00:55:45;;;;;;;;;;;;;;;;;;350137;28;812;-77
2022/03/02 00:55:56;;;;;;;;;;;;;;;;;;350119;28;972;-77
2022/03/02 00:56:06;;;;;;;;;;;;;;;;;;350140;28;960;-77
2022/03/02 00:56:16;;;;;;;;;;;;;;;;;;350115;28;968;-77
2022/03/02 00:56:26;;;;;;;;;;;;;;;;;;348780;28;1876;-77
2022/03/02 00:56:37;;;;;;;;;;;;;;;;;;348747;28;936;-77
2022/03/02 00:56:47;;;;;;;;;;;;;;;;;;348783;28;845;-77
2022/03/02 00:56:57;;;;;;;;;;;;;;;;;;348686;28;1023;-77
2022/03/02 00:57:07;;;;;;;;;;;;;;;;;;348713;28;992;-77
2022/03/02 00:57:18;;;;;;;;;;;;;;;;;;348751;28;834;-77
2022/03/02 00:57:28;;;;;;;;;;;;;;;;;;348786;28;849;-77
2022/03/02 00:57:38;;;;;;;;;;;;;;;;;;348744;28;965;-77
2022/03/02 00:57:48;;;;;;;;;;;;;;;;;;348721;28;933;-77
2022/03/02 00:57:59;;;;;;;;;;;;;;;;;;348700;28;1910;-77
2022/03/02 00:58:10;;;;;;;;;;;;;;;;;;348769;28;862;-77
2022/03/02 00:58:20;;;;;;;;;;;;;;;;;;348685;28;1905;-77
2022/03/02 00:58:30;;;;;;;;;;;;;;;;;;348646;28;1770;-77
2022/03/02 00:58:40;;;;;;;;;;;;;;;;;;348788;28;940;-77
2022/03/02 00:58:51;;;;;;;;;;;;;;;;;;348701;28;1885;-77
2022/03/02 00:59:01;;;;;;;;;;;;;;;;;;348573;28;1238;-77
2022/03/02 00:59:11;;;;;;;;;;;;;;;;;;348747;28;949;-77
2022/03/02 00:59:22;;;;;;;;;;;;;;;;;;348717;28;953;-77
2022/03/02 00:59:32;;;;;;;;;;;;;;;;;;348659;28;1856;-77
2022/03/02 00:59:43;;;;;;;;;;;;;;;;;;348764;28;810;-77
2022/03/02 00:59:53;;;;;;;;;;;;;;;;;;348707;28;913;-77
2022/03/02 01:00:04;;;;;;;;;;;;;;;;;;349808;28;1325;-77
2022/03/02 01:00:15;;;;;;;;;;;;;;;;;;350150;28;807;-77
2022/03/02 01:00:25;;;;;;;;;;;;;;;;;;350122;28;826;-77
2022/03/02 01:00:36;;;;;;;;;;;;;;;;;;350108;28;932;-77
2022/03/02 01:00:46;;;;;;;;;;;;;;;;;;350175;28;836;-77
2022/03/02 01:00:56;;;;;;;;;;;;;;;;;;350155;28;826;-77
2022/03/02 01:01:06;;;;;;;;;;;;;;;;;;350037;28;1023;-77
2022/03/02 01:01:17;;;;;;;;;;;;;;;;;;349950;28;1887;-77
2022/03/02 01:01:27;;;;;;;;;;;;;;;;;;350088;28;1046;-77
2022/03/02 01:01:37;;;;;;;;;;;;;;;;;;350170;28;908;-77
2022/03/02 01:01:47;;;;;;;;;;;;;;;;;;350098;28;1027;-77
2022/03/02 01:01:58;;;;;;;;;;;;;;;;;;350135;28;810;-77
2022/03/02 01:02:08;;;;;;;;;;;;;;;;;;350181;28;979;-77
2022/03/02 01:02:19;;;;;;;;;;;;;;;;;;350162;28;949;-77
2022/03/02 01:02:29;;;;;;;;;;;;;;;;;;350107;28;873;-77
2022/03/02 01:02:39;;;;;;;;;;;;;;;;;;350139;28;971;-77
2022/03/02 01:02:50;;;;;;;;;;;;;;;;;;350158;28;857;-77
2022/03/02 01:03:00;;;;;;;;;;;;;;;;;;350114;28;967;-77
2022/03/02 01:03:10;;;;;;;;;;;;;;;;;;350051;28;1008;-77
2022/03/02 01:03:20;;;;;;;;;;;;;;;;;;350076;28;984;-77
2022/03/02 01:03:31;;;;;;;;;;;;;;;;;;350042;28;1027;-77
2022/03/02 01:03:41;;;;;;;;;;;;;;;;;;350188;28;867;-77
2022/03/02 01:03:51;;;;;;;;;;;;;;;;;;350108;28;1035;-77
2022/03/02 01:04:01;;;;;;;;;;;;;;;;;;349898;28;1757;-77
2022/03/02 01:04:11;;;;;;;;;;;;;;;;;;350092;28;1686;-77
2022/03/02 01:04:22;;;;;;;;;;;;;;;;;;350146;28;807;-77
2022/03/02 01:04:32;;;;;;;;;;;;;;;;;;350100;28;802;-77
2022/03/02 01:04:42;;;;;;;;;;;;;;;;;;350080;28;960;-78
2022/03/02 01:04:53;;;;;;;;;;;;;;;;;;350139;28;916;-77
2022/03/02 01:05:06;;;;;;;;;;;;;;;;;;350108;28;987;-77
2022/03/02 01:05:16;;;;;;;;;;;;;;;;;;350096;28;913;-77
2022/03/02 01:05:26;;;;;;;;;;;;;;;;;;350113;28;1024;-77
2022/03/02 01:05:37;;;;;;;;;;;;;;;;;;350154;28;879;-77
2022/03/02 01:05:47;;;;;;;;;;;;;;;;;;350138;28;975;-77
2022/03/02 01:05:58;;;;;;;;;;;;;;;;;;350118;28;809;-77
2022/03/02 01:06:09;;;;;;;;;;;;;;;;;;350156;28;996;-77
2022/03/02 01:06:19;;;;;;;;;;;;;;;;;;349898;28;1915;-77
2022/03/02 01:06:29;;;;;;;;;;;;;;;;;;349485;28;1794;-77
2022/03/02 01:06:39;;;;;;;;;;;;;;;;;;350129;28;861;-77
2022/03/02 01:06:50;;;;;;;;;;;;;;;;;;350089;28;1158;-77
2022/03/02 01:07:00;;;;;;;;;;;;;;;;;;350123;28;924;-77
2022/03/02 01:07:10;;;;;;;;;;;;;;;;;;350118;28;905;-78
2022/03/02 01:07:21;;;;;;;;;;;;;;;;;;350030;28;929;-77
2022/03/02 01:07:31;;;;;;;;;;;;;;;;;;350100;28;920;-77
2022/03/02 01:07:41;;;;;;;;;;;;;;;;;;350091;28;909;-78
2022/03/02 01:07:52;;;;;;;;;;;;;;;;;;350097;28;905;-78
2022/03/02 01:08:02;;;;;;;;;;;;;;;;;;350128;28;920;-77
2022/03/02 01:08:12;;;;;;;;;;;;;;;;;;350118;28;888;-77
2022/03/02 01:08:23;;;;;;;;;;;;;;;;;;349839;28;1877;-77
2022/03/02 01:08:33;;;;;;;;;;;;;;;;;;348694;28;1863;-77
2022/03/02 01:08:43;;;;;;;;;;;;;;;;;;348732;28;979;-77
2022/03/02 01:08:54;;;;;;;;;;;;;;;;;;348782;28;1023;-78
2022/03/02 01:09:04;;;;;;;;;;;;;;;;;;348677;28;980;-78
2022/03/02 01:09:15;;;;;;;;;;;;;;;;;;348607;28;1881;-77
2022/03/02 01:09:25;;;;;;;;;;;;;;;;;;348646;28;1836;-77
2022/03/02 01:09:35;;;;;;;;;;;;;;;;;;348777;28;813;-77
2022/03/02 01:09:46;;;;;;;;;;;;;;;;;;348728;28;1058;-77
2022/03/02 01:09:56;;;;;;;;;;;;;;;;;;348727;28;928;-77
2022/03/02 01:10:07;;;;;;;;;;;;;;;;;;348706;28;952;-77
2022/03/02 01:10:17;;;;;;;;;;;;;;;;;;348745;28;909;-78
2022/03/02 01:10:27;;;;;;;;;;;;;;;;;;348756;28;972;-77
2022/03/02 01:10:38;;;;;;;;;;;;;;;;;;348719;28;1003;-77
2022/03/02 01:10:48;;;;;;;;;;;;;;;;;;348733;28;992;-77
2022/03/02 01:10:59;;;;;;;;;;;;;;;;;;348790;28;869;-77
2022/03/02 01:11:09;;;;;;;;;;;;;;;;;;348812;28;830;-77
2022/03/02 01:11:19;;;;;;;;;;;;;;;;;;348761;28;1896;-77
2022/03/02 01:11:30;;;;;;;;;;;;;;;;;;348775;28;897;-77
2022/03/02 01:11:40;;;;;;;;;;;;;;;;;;348614;28;1012;-78
2022/03/02 01:11:50;;;;;;;;;;;;;;;;;;348754;28;860;-77
2022/03/02 01:12:00;;;;;;;;;;;;;;;;;;348755;28;936;-77
2022/03/02 01:12:11;;;;;;;;;;;;;;;;;;348700;28;810;-77
2022/03/02 01:12:21;;;;;;;;;;;;;;;;;;348753;28;1039;-77
2022/03/02 01:12:32;;;;;;;;;;;;;;;;;;348760;28;1004;-77
2022/03/02 01:12:42;;;;;;;;;;;;;;;;;;348638;28;917;-77
2022/03/02 01:12:52;;;;;;;;;;;;;;;;;;348716;28;925;-77
2022/03/02 01:13:03;;;;;;;;;;;;;;;;;;348765;28;858;-77
2022/03/02 01:13:13;;;;;;;;;;;;;;;;;;348712;28;925;-77
2022/03/02 01:13:24;;;;;;;;;;;;;;;;;;348666;28;1834;-77
2022/03/02 01:13:34;;;;;;;;;;;;;;;;;;348513;28;1783;-77
2022/03/02 01:13:46;;;;;;;;;;;;;;;;;;349734;28;1798;-77
2022/03/02 01:13:56;;;;;;;;;;;;;;;;;;350115;28;1004;-77
2022/03/02 01:14:07;;;;;;;;;;;;;;;;;;350134;28;802;-77
2022/03/02 01:14:17;;;;;;;;;;;;;;;;;;350108;28;826;-77
2022/03/02 01:14:27;;;;;;;;;;;;;;;;;;350135;28;917;-77
2022/03/02 01:14:38;;;;;;;;;;;;;;;;;;350092;28;846;-77
2022/03/02 01:14:48;;;;;;;;;;;;;;;;;;350105;28;796;-77
2022/03/02 01:14:58;;;;;;;;;;;;;;;;;;350097;28;1050;-77